Date,TemperatureHighF,TemperatureAvgF,TemperatureLowF,DewpointHighF,DewpointAvgF,DewpointLowF,HumidityHigh,HumidityAvg,HumidityLow,PressureMaxIn,PressureMinIn,WindSpeedMaxMPH,WindSpeedAvgMPH,GustSpeedMaxMPH,PrecipitationSumIn
2013-1-1,34.0,25.1,16.0,30.0,17.0,8.0,96,72,46,0.00,40.00,13,4,15,0.00
2013-1-2,24.0,16.6,8.0,17.0,12.8,7.0,95,85,72,0.00,40.00,11,7,14,0.00
2013-1-3,29.0,20.9,9.0,26.0,15.6,4.0,89,79,68,0.00,40.00,16,10,20,0.00
2013-1-4,28.0,23.1,17.0,22.0,18.2,14.0,92,81,71,0.00,40.00,24,14,30,0.00
2013-1-5,33.0,26.6,17.0,33.0,23.5,17.0,99,88,69,0.00,40.00,16,8,19,0.00
2013-1-6,36.0,32.8,28.0,33.0,30.4,26.0,98,90,77,0.00,40.00,22,11,27,0.00
2013-1-7,34.0,29.4,23.0,30.0,25.6,20.0,95,85,72,0.00,40.00,17,8,24,0.00
2013-1-8,39.0,30.0,24.0,30.0,25.7,22.0,93,84,62,0.00,40.00,15,7,20,0.00
2013-1-9,46.0,38.8,30.0,35.0,31.7,28.0,92,76,55,0.00,40.00,18,10,25,0.00
2013-1-10,40.0,33.0,24.0,36.0,30.6,24.0,99,91,71,0.00,40.00,13,6,19,1.10
2013-1-11,58.0,47.5,37.0,56.0,46.0,33.0,99,94,80,0.00,40.00,19,10,25,4.49
2013-1-12,60.0,52.1,47.0,56.0,50.5,46.0,98,94,82,0.00,40.00,13,7,16,4.53
2013-1-13,53.0,40.3,31.0,53.0,40.1,30.0,99,99,98,0.00,40.00,20,8,25,4.52
2013-1-14,31.0,24.4,19.0,31.0,20.1,17.0,98,83,71,0.00,40.00,19,8,25,0.00
2013-1-15,30.0,23.7,16.0,23.0,19.3,15.0,96,84,66,0.00,40.00,10,4,14,0.00
2013-1-16,37.0,29.2,23.0,28.0,22.8,19.0,96,78,50,0.00,40.00,18,9,26,0.00
2013-1-17,42.0,32.3,19.0,33.0,24.0,11.0,96,73,47,0.00,40.00,23,9,29,0.00
2013-1-18,37.0,28.4,19.0,25.0,19.9,14.0,90,70,54,0.00,40.00,20,11,31,0.00
2013-1-19,49.0,41.8,36.0,36.0,29.6,24.0,75,61,53,0.00,40.00,27,18,38,0.00
2013-1-20,43.0,25.4,19.0,36.0,15.5,10.0,75,65,53,0.00,40.00,35,17,48,0.55
2013-1-21,20.0,16.1,8.0,12.0,7.3,2.0,86,68,50,0.00,40.00,25,14,32,1.65
2013-1-22,13.0,7.9,5.0,4.0,1.5,-2.0,89,75,61,0.00,40.00,19,12,25,1.10
2013-1-23,18.0,13.3,7.0,16.0,5.7,0.0,95,72,51,0.00,40.00,14,8,20,1.10
2013-1-24,22.0,14.5,7.0,17.0,6.6,1.0,96,72,43,0.00,40.00,14,6,25,0.00
2013-1-25,22.0,19.6,17.0,22.0,15.5,6.0,98,84,62,0.00,40.00,11,7,15,2.75
2013-1-26,30.0,23.1,13.0,23.0,17.1,10.0,98,80,49,0.00,40.00,11,5,17,1.10
2013-1-27,33.0,23.9,15.0,31.0,20.0,12.0,97,84,69,0.00,40.00,16,7,21,0.00
2013-1-28,48.0,42.7,33.0,48.0,42.6,31.0,99,99,95,0.00,40.00,18,10,25,1.10
2013-1-29,61.0,52.9,40.0,58.0,52.1,40.0,99,97,90,0.00,40.00,19,11,29,0.00
2013-1-30,65.0,50.5,32.0,60.0,49.0,27.0,98,94,83,0.00,40.00,28,16,50,2.20
2013-1-31,32.0,20.9,15.0,27.0,12.1,5.0,82,68,55,0.00,40.00,27,20,37,0.00